LBSFLBWN

Guest
Details From LBSF - Sofia
To LBWN - Varna
Flight Number -
Tags generated
Created
Modified
Stats Distance 197 nm / 365 km
Max Altitude 11,000 ft / 3,353 m
Waypoints 3
Social Downloads 2
Likes 0
Share VATSIM

Download

Looking for another format? Having issues loading an existing format? Contact us
Advertisement - Login to hide

Notes

Basic altitude profile: - Ascent Rate: 1500ft/min - Ascent Speed: 160kts - Cruise Altitude: 12000ft - Cruise Speed: 190kts - Descent Rate: 1500ft/min - Descent Speed: 160kts

Route

LBSF GRN LBWN

ID Type Via Altitude Latitude Longitude Leg Dist Tot Dist Heading (true) Name
O LBSF APT - 0 ft / 0 m 42.69713˚ 23.41672˚ - 0 nm - Sofia
GRN VOR - 11,000 ft / 3,353 m 43.15389˚ 25.71083˚ 104 nm 104 nm 74° / 76° GORNA ORYAHOVITSA VOR-DME
O LBWN APT - 0 ft / 0 m 43.23204˚ 27.82524˚ 92 nm 197 nm 86° / 88° Varna

Altitude Profile

Advertisement - Login to hide

Weather


0- 5 10 15 20 25 30 35+ Temperature / ° C

Clouds and Precipitation
Forecast for 2017-12-15 00:00 UTC. Updated an hour ago

Ground ~20,000 ft ~40,000 ft Winds

LBSF

Details ICAO LBSF (SOF)
Name Sofia
Region Bulgaria
Timezone Europe/Sofia (UTC+2.0)
Stats Elevation 1,741 ft / 531 m (AMSL)
Location 42.697130° 23.416722°
Runways 1
Magnetic Variation 4.934° E

METAR

LBSF 150030Z 14005KT 100V160 CAVOK 01/M00 Q1012 NOSIG

Decode

TAF

TAF LBSF 142300Z 1500/1524 VRB04KT 8000 SCT020 SCT060 BECMG 1501/1503 3000 BR TEMPO 1505/1507 1200 BR BECMG 1508/1510 11010KT 9999 PROB40 TEMPO 1518/1524 21012G24KT

Decode

Departure Runways

ID Width Length Bearing (true) Bearing (mag) Surface Threshold Offset Overrun Length
09 148 ft / 45 m 11,801 ft / 3,597 m 93.99° 89.06° Asphalt 984 ft / 300 m 525 ft / 160 m
27 148 ft / 45 m 11,801 ft / 3,597 m 274.02° 269.09° Asphalt 0 ft / 0 m 525 ft / 160 m

LBWN

Details ICAO LBWN (VAR)
Name Varna
Region Bulgaria
Timezone Europe/Sofia (UTC+2.0)
Stats Elevation 230 ft / 70 m (AMSL)
Location 43.232042° 27.825236°
Runways 1
Magnetic Variation 5.647° E

METAR

LBWN 150030Z 00000KT 7000 NSC 06/05 Q1011 TEMPO 3000 BR

Decode

TAF

TAF LBWN 142300Z 1500/1524 VRB04KT 5000 BR SCT015 BECMG 1500/1502 2000 BR TEMPO 1502/1507 0600 FG BKN003 BECMG 1507/1509 9999 BECMG 1510/1512 15010KT BECMG 1517/1519 25010KT

Decode

Destination Runways

ID Width Length Bearing (true) Bearing (mag) Surface Threshold Offset Overrun Length
09 180 ft / 55 m 8,254 ft / 2,516 m 97.11° 91.46° Concrete 350 ft / 107 m 0 ft / 0 m
27 180 ft / 55 m 8,254 ft / 2,516 m 277.13° 271.48° Concrete 350 ft / 107 m 0 ft / 0 m

Approach Navaids

Runway Type Ident Frequency Range Bearing (true) Bearing (mag) Slope Elevation
09 Localiser IWN 109.90 MHz 18 nm / 33 km 97.27° 91.62° - 230 ft / 70 m (AMSL)
09 Glidescope IWN 109.90 MHz 10 nm / 19 km 97.12° 91.48° 3.00° 230 ft / 70 m (AMSL)

Popular Alternatives